This is the latest recevied weather packets stored in our database for station/object W3BRL. If no packets are shown the sender has not sent any weather packets the latest 1 day(s).
| Time | Temp. | Humidity | Pressure | Rain* | Wind** | Luminosity | Snow |
|---|---|---|---|---|---|---|---|
| 1778096574 | 11.67° C | 76% | 1008.4 hPa | 0 mm | - | 126 W/m² | - |
| 1778095362 | 11.67° C | 78% | 1008.5 hPa | 0 mm | - | 69 W/m² | - |
| 1778094452 | 12.22° C | 75% | 1008.1 hPa | 0 mm | - | 109 W/m² | - |
| 1778087483 | 11.11° C | 86% | 1007.9 hPa | 0 mm | - | 177 W/m² | - |
| 1778084754 | 10° C | 96% | 1007.4 hPa | 0 mm | - | 166 W/m² | - |
| 1778080316 | 10° C | 97% | 1006.7 hPa | 0 mm | - | 82 W/m² | - |
| 1778079710 | 10° C | 97% | 1006.4 hPa | 0 mm | - | 94 W/m² | - |
| 1778077893 | 9.44° C | 97% | 1005.7 hPa | 0 mm | - | 87 W/m² | - |
| 1778076382 | 10° C | 97% | 1005.4 hPa | 1.27 mm | - | 85 W/m² | - |
| 1778075472 | 10° C | 96% | 1005 hPa | 1.78 mm | - | 44 W/m² | - |
| 1778074562 | 10.56° C | 96% | 1004.8 hPa | 1.27 mm | - | 40 W/m² | - |
| 1778074259 | 11.11° C | 96% | 1004.7 hPa | 1.78 mm | - | 21 W/m² | - |
| 1778073956 | 11.67° C | 96% | 1004.8 hPa | 3.56 mm | - | 15 W/m² | - |
| 1778071232 | 13.33° C | 96% | 1004.2 hPa | 0 mm | - | 26 W/m² | - |
| 1778070324 | 13.33° C | 97% | 1004.4 hPa | 1.78 mm | - | 28 W/m² | - |
| 1778069114 | 13.33° C | 97% | 1004.3 hPa | 1.78 mm | - | 20 W/m² | - |
| 1778068811 | 13.33° C | 97% | 1004.3 hPa | 1.27 mm | - | 14 W/m² | - |
| 1778068207 | 13.33° C | 97% | 1004.3 hPa | 0 mm | - | 19 W/m² | - |
| 1778066996 | 13.33° C | 97% | 1003.7 hPa | 0 mm | - | 14 W/m² | - |
| 1778066089 | 13.33° C | 97% | 1003.7 hPa | 1.78 mm | - | 15 W/m² | - |
| 1778064876 | 12.78° C | 97% | 1004.2 hPa | 1.27 mm | - | 2 W/m² | - |
| 1778062152 | 12.78° C | 96% | 1004.2 hPa | 10.67 mm | - | 0 W/m² | - |
| 1778061850 | 12.78° C | 96% | 1004.4 hPa | 7.11 mm | - | 0 W/m² | - |
| 1778061548 | 12.78° C | 96% | 1004.3 hPa | 3.05 mm | - | 0 W/m² | - |
| 1778060942 | 12.78° C | 96% | 1003.9 hPa | 1.27 mm | - | 0 W/m² | - |
* Rain latest hour (hover to see other rain measurements)
** Current wind speed in m/s (hover to see current wind gust speed)